Time;durP1;ratioP1;P1;durP2;ratioP2;P2;SDS_P1;SDS_P2;PMS_P1;PMS_P2;Temp;Humidity;BMP_temperature;BMP_pressure;BME280_temperature;BME280_humidity;BME280_pressure;Samples;Min_cycle;Max_cycle;Signal;HPM_P1;HPM_P2
2024/01/08 00:01:59;;;;;;;;;;;1.40;69.00;;;;;;5094062;28;19928;-61
2024/01/08 00:04:57;;;;;;;;;;;1.50;69.40;;;;;;5097254;28;19923;-63
2024/01/08 00:07:36;;;;;;;;;;;1.50;69.40;;;;;;5091441;28;19932;-61
2024/01/08 00:10:10;;;;;;;;;;;1.40;69.00;;;;;;5109508;27;20417;-61
2024/01/08 00:12:43;;;;;;;;;;;1.50;69.10;;;;;;5120086;27;19927;-62
2024/01/08 00:15:16;;;;;;;;;;;1.50;68.80;;;;;;5112308;27;19974;-62
2024/01/08 00:17:51;;;;;;;;;;;1.40;69.20;;;;;;5108852;27;19934;-64
2024/01/08 00:20:25;;;;;;;;;;;1.50;69.20;;;;;;5096786;27;20008;-66
2024/01/08 00:22:58;;;;;;;;;;;1.50;69.50;;;;;;5110005;27;20424;-71
2024/01/08 00:25:31;;;;;;;;;;;1.70;72.70;;;;;;5099204;27;20325;-73
2024/01/08 00:28:05;;;;;;;;;;;1.80;71.70;;;;;;5091369;27;19939;-74
2024/01/08 00:30:38;;;;;;;;;;;1.70;70.80;;;;;;5091605;27;19924;-72
2024/01/08 00:33:12;;;;;;;;;;;1.70;70.60;;;;;;5094752;27;19927;-73
2024/01/08 00:35:46;;;;;;;;;;;1.60;70.40;;;;;;5114831;27;19951;-72
2024/01/08 00:38:19;;;;;;;;;;;1.60;70.00;;;;;;5113439;27;19988;-72
2024/01/08 00:40:52;;;;;;;;;;;1.60;71.00;;;;;;5116688;27;20293;-74
2024/01/08 00:43:32;;;;;;;;;;;1.80;75.30;;;;;;5107282;27;19934;-70
2024/01/08 00:46:06;;;;;;;;;;;2.00;75.80;;;;;;5113166;27;19933;-69
2024/01/08 00:48:40;;;;;;;;;;;2.00;74.00;;;;;;5095059;27;20438;-72
2024/01/08 00:51:14;;;;;;;;;;;1.80;72.00;;;;;;5111900;27;19966;-72
2024/01/08 00:53:47;;;;;;;;;;;1.60;70.70;;;;;;5098622;27;19967;-69
2024/01/08 00:56:20;;;;;;;;;;;1.50;70.30;;;;;;5111258;27;20004;-71
2024/01/08 00:58:54;;;;;;;;;;;1.40;70.00;;;;;;5117766;27;19928;-72
2024/01/08 01:01:28;;;;;;;;;;;1.30;69.20;;;;;;5116963;27;19959;-73
2024/01/08 01:04:02;;;;;;;;;;;1.30;70.10;;;;;;5116927;27;20004;-73
2024/01/08 01:06:36;;;;;;;;;;;1.30;69.50;;;;;;5111064;27;19927;-72
2024/01/08 01:09:09;;;;;;;;;;;1.30;69.00;;;;;;5098195;28;19924;-70
2024/01/08 01:11:42;;;;;;;;;;;1.30;69.70;;;;;;5093943;27;19924;-71
2024/01/08 01:14:15;;;;;;;;;;;1.30;69.40;;;;;;5109833;27;19928;-72
2024/01/08 01:16:48;;;;;;;;;;;1.20;69.30;;;;;;5096213;27;19989;-72
2024/01/08 01:19:22;;;;;;;;;;;1.20;69.50;;;;;;5099065;27;19931;-72
2024/01/08 01:21:56;;;;;;;;;;;1.30;69.40;;;;;;5105089;27;20358;-72
2024/01/08 01:24:29;;;;;;;;;;;1.30;69.80;;;;;;5110344;27;19931;-71
2024/01/08 01:27:02;;;;;;;;;;;1.20;69.40;;;;;;5117209;27;19923;-70
2024/01/08 01:29:35;;;;;;;;;;;1.20;69.30;;;;;;5115842;27;19953;-61
2024/01/08 01:32:08;;;;;;;;;;;1.20;69.30;;;;;;5113133;27;20048;-62
2024/01/08 01:34:43;;;;;;;;;;;1.20;69.20;;;;;;5108315;27;19923;-62
2024/01/08 01:37:16;;;;;;;;;;;1.20;69.50;;;;;;5099088;27;20335;-63
2024/01/08 01:39:49;;;;;;;;;;;1.20;69.10;;;;;;5100173;27;19964;-62
2024/01/08 01:42:22;;;;;;;;;;;1.20;69.30;;;;;;5108329;27;19928;-62
2024/01/08 01:44:55;;;;;;;;;;;1.20;69.10;;;;;;5100174;27;19928;-64
2024/01/08 01:47:28;;;;;;;;;;;1.20;69.10;;;;;;5097859;27;19967;-61
2024/01/08 01:50:04;;;;;;;;;;;1.20;69.00;;;;;;5112795;27;19927;-62
2024/01/08 01:52:37;;;;;;;;;;;1.20;69.30;;;;;;5110251;27;19934;-63
2024/01/08 01:55:04;;;;;;;;;;;1.20;69.10;;;;;;5105906;27;20371;-62
2024/01/08 01:57:37;;;;;;;;;;;1.20;68.90;;;;;;5096668;27;19928;-62
2024/01/08 02:00:11;;;;;;;;;;;1.20;69.30;;;;;;5101344;27;20370;-60
2024/01/08 02:02:44;;;;;;;;;;;1.20;69.20;;;;;;5088897;28;19931;-62
2024/01/08 02:05:19;;;;;;;;;;;1.20;69.50;;;;;;5110071;27;19977;-61
2024/01/08 02:07:53;;;;;;;;;;;1.30;69.30;;;;;;5117128;27;20400;-63
2024/01/08 02:10:26;;;;;;;;;;;1.20;69.30;;;;;;5110146;27;19935;-59
2024/01/08 02:13:01;;;;;;;;;;;1.20;69.20;;;;;;5112162;28;19924;-63
2024/01/08 02:15:34;;;;;;;;;;;1.10;69.00;;;;;;5110815;28;19934;-63
2024/01/08 02:18:07;;;;;;;;;;;1.10;68.50;;;;;;5100759;28;19928;-62
2024/01/08 02:20:41;;;;;;;;;;;1.20;68.10;;;;;;5114216;28;19928;-62
2024/01/08 02:23:15;;;;;;;;;;;1.10;67.80;;;;;;5099652;28;19951;-61
2024/01/08 02:25:48;;;;;;;;;;;1.20;67.50;;;;;;5103159;28;19924;-61
2024/01/08 02:28:21;;;;;;;;;;;1.10;67.20;;;;;;5106566;28;19928;-62
2024/01/08 02:30:56;;;;;;;;;;;1.10;67.30;;;;;;5084358;28;19936;-61
2024/01/08 02:33:29;;;;;;;;;;;1.10;67.60;;;;;;5086688;28;19932;-62
2024/01/08 02:36:02;;;;;;;;;;;1.10;67.20;;;;;;5108903;28;20012;-62
2024/01/08 02:38:37;;;;;;;;;;;1.20;67.40;;;;;;5107141;28;20055;-64
2024/01/08 02:41:10;;;;;;;;;;;1.10;67.10;;;;;;5095770;28;19962;-63
2024/01/08 02:43:43;;;;;;;;;;;1.10;67.30;;;;;;5104221;28;20024;-64
2024/01/08 02:46:16;;;;;;;;;;;1.00;67.40;;;;;;5110540;28;19924;-64
2024/01/08 02:48:49;;;;;;;;;;;1.00;67.10;;;;;;5106596;28;19928;-64
2024/01/08 02:51:22;;;;;;;;;;;1.10;67.40;;;;;;5101027;28;19925;-64
2024/01/08 02:53:57;;;;;;;;;;;1.10;67.00;;;;;;5096281;28;19928;-63
2024/01/08 02:56:31;;;;;;;;;;;1.00;66.90;;;;;;5106299;28;19930;-64
2024/01/08 02:58:57;;;;;;;;;;;1.00;66.80;;;;;;5104645;28;20022;-64
2024/01/08 03:01:30;;;;;;;;;;;1.00;66.70;;;;;;5098217;28;19928;-64
2024/01/08 03:04:03;;;;;;;;;;;1.00;66.60;;;;;;5098251;28;19931;-64
2024/01/08 03:06:36;;;;;;;;;;;1.00;66.70;;;;;;5108232;28;19973;-64
2024/01/08 03:09:10;;;;;;;;;;;1.00;66.70;;;;;;5097401;28;19923;-63
2024/01/08 03:11:43;;;;;;;;;;;1.00;67.10;;;;;;5105121;28;20014;-64
2024/01/08 03:14:16;;;;;;;;;;;1.00;67.10;;;;;;5101014;28;19929;-64
2024/01/08 03:16:49;;;;;;;;;;;1.00;67.20;;;;;;5114406;27;19974;-64
2024/01/08 03:19:22;;;;;;;;;;;1.00;67.30;;;;;;5073040;28;20038;-63
2024/01/08 03:21:56;;;;;;;;;;;1.00;67.20;;;;;;5114042;27;19932;-65
2024/01/08 03:24:31;;;;;;;;;;;1.10;67.50;;;;;;5098769;28;19981;-63
2024/01/08 03:27:04;;;;;;;;;;;1.00;67.30;;;;;;5107044;27;20401;-65
2024/01/08 03:29:37;;;;;;;;;;;1.00;67.60;;;;;;5104189;27;19931;-63
2024/01/08 03:32:11;;;;;;;;;;;1.00;68.00;;;;;;5105932;27;19970;-63
2024/01/08 03:34:46;;;;;;;;;;;1.00;68.20;;;;;;5095038;28;19984;-63
2024/01/08 03:37:19;;;;;;;;;;;0.90;68.30;;;;;;5113297;27;20008;-64
2024/01/08 03:39:53;;;;;;;;;;;1.00;68.30;;;;;;5110231;27;19930;-63
2024/01/08 03:42:27;;;;;;;;;;;1.00;68.30;;;;;;5111695;27;19928;-62
2024/01/08 03:45:00;;;;;;;;;;;1.00;68.10;;;;;;5108105;27;20020;-64
2024/01/08 03:47:27;;;;;;;;;;;1.00;68.30;;;;;;5106636;27;19928;-63
2024/01/08 03:50:00;;;;;;;;;;;1.00;68.10;;;;;;5099522;28;19935;-74
2024/01/08 03:52:33;;;;;;;;;;;1.00;68.30;;;;;;5115359;27;19924;-74
2024/01/08 03:55:09;;;;;;;;;;;1.00;68.10;;;;;;5118665;27;19924;-73
2024/01/08 03:57:42;;;;;;;;;;;1.10;68.20;;;;;;5106605;27;19947;-74
2024/01/08 04:00:25;;;;;;;;;;;1.10;68.10;;;;;;5107066;27;19924;-73
2024/01/08 04:02:58;;;;;;;;;;;1.00;68.00;;;;;;5088505;28;19924;-73
2024/01/08 04:05:31;;;;;;;;;;;1.00;68.20;;;;;;5093346;28;20438;-73
2024/01/08 04:08:04;;;;;;;;;;;1.00;68.30;;;;;;5118877;27;19924;-74
2024/01/08 04:10:38;;;;;;;;;;;1.00;68.40;;;;;;5110013;27;19928;-73
2024/01/08 04:13:11;;;;;;;;;;;0.90;68.40;;;;;;5105353;27;20378;-73
2024/01/08 04:15:44;;;;;;;;;;;0.90;68.60;;;;;;5102575;27;19971;-73
2024/01/08 04:18:17;;;;;;;;;;;0.90;68.20;;;;;;5110514;27;20019;-73
2024/01/08 04:20:57;;;;;;;;;;;0.80;67.80;;;;;;5099681;27;19938;-73
2024/01/08 04:23:30;;;;;;;;;;;0.90;68.00;;;;;;5085722;28;20194;-73
2024/01/08 04:26:05;;;;;;;;;;;0.80;68.10;;;;;;5098588;27;19946;-74
2024/01/08 04:28:38;;;;;;;;;;;0.90;68.40;;;;;;5114029;27;19935;-73
2024/01/08 04:31:16;;;;;;;;;;;0.90;67.90;;;;;;5089618;28;20410;-76
2024/01/08 04:33:50;;;;;;;;;;;0.90;68.00;;;;;;5090768;28;19928;-74
2024/01/08 04:36:23;;;;;;;;;;;0.90;67.80;;;;;;5098392;28;19934;-74
2024/01/08 04:41:48;;;;;;;;;;;0.90;67.80;;;;;;5106167;27;19935;-74
2024/01/08 04:44:21;;;;;;;;;;;0.80;68.30;;;;;;5107695;27;19924;-75
2024/01/08 04:46:54;;;;;;;;;;;0.80;68.30;;;;;;5094081;28;19938;-72
2024/01/08 04:49:27;;;;;;;;;;;0.80;68.30;;;;;;5103613;27;20267;-73
2024/01/08 04:52:00;;;;;;;;;;;0.80;68.00;;;;;;5102960;27;19986;-74
2024/01/08 04:54:41;;;;;;;;;;;0.80;68.20;;;;;;5094541;28;19979;-74
2024/01/08 04:57:22;;;;;;;;;;;0.80;68.40;;;;;;5114579;27;20012;-74
2024/01/08 04:59:55;;;;;;;;;;;0.70;68.40;;;;;;5102681;27;19983;-61
2024/01/08 05:02:28;;;;;;;;;;;0.70;68.50;;;;;;5108703;27;20443;-61
2024/01/08 05:05:04;;;;;;;;;;;0.70;68.40;;;;;;5109095;27;20006;-61
2024/01/08 05:07:37;;;;;;;;;;;0.70;68.40;;;;;;5110125;27;19928;-63
2024/01/08 05:10:10;;;;;;;;;;;0.70;68.70;;;;;;5111287;27;19931;-62
2024/01/08 05:12:44;;;;;;;;;;;0.70;69.00;;;;;;5101076;27;19934;-62
2024/01/08 05:15:17;;;;;;;;;;;0.70;69.00;;;;;;5103622;27;19938;-63
2024/01/08 05:17:50;;;;;;;;;;;0.80;69.00;;;;;;5104707;27;19929;-62
2024/01/08 05:20:23;;;;;;;;;;;0.80;69.20;;;;;;5119207;27;19972;-63
2024/01/08 05:22:56;;;;;;;;;;;0.80;68.90;;;;;;5090958;28;19989;-63
2024/01/08 05:25:29;;;;;;;;;;;0.70;68.10;;;;;;5110161;27;19947;-61
2024/01/08 05:28:05;;;;;;;;;;;0.70;68.20;;;;;;5117278;27;19976;-62
2024/01/08 05:30:38;;;;;;;;;;;0.70;67.60;;;;;;5108219;27;20753;-62
2024/01/08 05:33:18;;;;;;;;;;;0.70;67.70;;;;;;5098177;28;19924;-62
2024/01/08 05:35:51;;;;;;;;;;;0.70;67.20;;;;;;5097177;28;19976;-61
2024/01/08 05:38:25;;;;;;;;;;;0.70;67.00;;;;;;5113058;27;19963;-61
2024/01/08 05:40:58;;;;;;;;;;;0.60;66.80;;;;;;5116941;27;19930;-62
2024/01/08 05:43:37;;;;;;;;;;;0.60;66.20;;;;;;5093601;28;19938;-61
2024/01/08 05:46:10;;;;;;;;;;;0.60;66.10;;;;;;5112953;27;19935;-63
2024/01/08 05:48:43;;;;;;;;;;;0.60;66.10;;;;;;5112984;27;19977;-61
2024/01/08 05:51:17;;;;;;;;;;;0.50;64.50;;;;;;5105495;27;19930;-62
2024/01/08 05:53:50;;;;;;;;;;;0.50;64.00;;;;;;5090304;28;20018;-61
2024/01/08 05:56:24;;;;;;;;;;;0.40;64.00;;;;;;5113559;27;19977;-62
2024/01/08 05:58:59;;;;;;;;;;;0.40;64.30;;;;;;5116339;27;19984;-62
2024/01/08 06:01:32;;;;;;;;;;;0.50;64.10;;;;;;5113945;27;19963;-62
2024/01/08 06:04:05;;;;;;;;;;;0.40;63.40;;;;;;5116317;27;19966;-62
2024/01/08 06:06:38;;;;;;;;;;;0.40;62.60;;;;;;5096046;28;19959;-62
2024/01/08 06:09:11;;;;;;;;;;;0.40;62.80;;;;;;5085744;28;19930;-64
2024/01/08 06:11:51;;;;;;;;;;;0.40;62.80;;;;;;5101944;28;20006;-65
2024/01/08 06:14:26;;;;;;;;;;;0.40;62.90;;;;;;5109838;27;19927;-65
2024/01/08 06:16:59;;;;;;;;;;;0.50;63.20;;;;;;5114910;27;19924;-66
2024/01/08 06:19:32;;;;;;;;;;;0.40;63.10;;;;;;5095674;28;20361;-63
2024/01/08 06:22:05;;;;;;;;;;;0.50;63.10;;;;;;5105085;28;19924;-65
2024/01/08 06:24:38;;;;;;;;;;;0.40;62.70;;;;;;5106642;28;19947;-64
2024/01/08 06:27:11;;;;;;;;;;;0.30;62.90;;;;;;5115580;28;19968;-63
2024/01/08 06:29:46;;;;;;;;;;;0.30;62.50;;;;;;5106624;28;19967;-64
2024/01/08 06:32:19;;;;;;;;;;;0.30;62.70;;;;;;5104364;28;19932;-67
2024/01/08 06:34:52;;;;;;;;;;;0.20;62.40;;;;;;5098186;28;19957;-65
2024/01/08 06:37:26;;;;;;;;;;;0.20;62.00;;;;;;5105390;28;19927;-65
2024/01/08 06:39:59;;;;;;;;;;;0.20;62.60;;;;;;5103293;28;19924;-66
2024/01/08 06:42:32;;;;;;;;;;;0.00;62.20;;;;;;5104309;28;19935;-65
2024/01/08 06:45:07;;;;;;;;;;;0.00;62.20;;;;;;5107194;28;19931;-66
2024/01/08 06:47:40;;;;;;;;;;;0.00;62.40;;;;;;5097358;28;19936;-64
2024/01/08 06:50:13;;;;;;;;;;;0.00;61.70;;;;;;5103952;28;19968;-65
2024/01/08 06:52:48;;;;;;;;;;;0.00;62.10;;;;;;5120224;27;19938;-65
2024/01/08 06:55:21;;;;;;;;;;;-3276.70;62.20;;;;;;5119478;27;20012;-65
2024/01/08 06:57:54;;;;;;;;;;;0.00;62.10;;;;;;5121590;27;19954;-65
2024/01/08 07:00:29;;;;;;;;;;;0.00;62.10;;;;;;5109240;27;19931;-64
2024/01/08 07:03:02;;;;;;;;;;;-3276.70;62.30;;;;;;5103353;27;19924;-65
2024/01/08 07:05:36;;;;;;;;;;;-3276.70;62.30;;;;;;5094044;28;20271;-64
2024/01/08 07:08:02;;;;;;;;;;;0.00;62.70;;;;;;5113173;27;19970;-65
2024/01/08 07:10:35;;;;;;;;;;;0.00;62.50;;;;;;5112731;27;19924;-64
2024/01/08 07:13:08;;;;;;;;;;;-3276.70;62.30;;;;;;5116579;27;19949;-64
2024/01/08 07:15:58;;;;;;;;;;;-3276.60;62.30;;;;;;5093882;28;21873;-66
2024/01/08 07:18:38;;;;;;;;;;;-3276.60;62.50;;;;;;5116763;27;19964;-65
2024/01/08 07:21:13;;;;;;;;;;;-3276.50;62.70;;;;;;5114309;27;20675;-72
2024/01/08 07:23:48;;;;;;;;;;;-3276.60;63.00;;;;;;5099790;27;19928;-72
2024/01/08 07:26:21;;;;;;;;;;;-3276.60;63.00;;;;;;5104199;27;19935;-70
2024/01/08 07:28:54;;;;;;;;;;;-3276.70;63.40;;;;;;5092894;28;19931;-72
2024/01/08 07:31:31;;;;;;;;;;;-3276.70;63.40;;;;;;5109595;27;20016;-71
2024/01/08 07:34:04;;;;;;;;;;;-3276.70;63.40;;;;;;5118759;27;19972;-72
2024/01/08 07:36:38;;;;;;;;;;;-3276.50;63.00;;;;;;5112445;27;19938;-70
2024/01/08 07:39:14;;;;;;;;;;;-3276.50;63.50;;;;;;5120300;27;19930;-71
2024/01/08 07:41:49;;;;;;;;;;;-3276.50;63.90;;;;;;5096246;27;19932;-71
2024/01/08 07:44:22;;;;;;;;;;;-3276.60;63.50;;;;;;5104042;27;20458;-71
2024/01/08 07:46:57;;;;;;;;;;;-3276.50;63.50;;;;;;5120095;27;19928;-72
2024/01/08 07:49:30;;;;;;;;;;;-3276.50;63.50;;;;;;5110828;27;19923;-72
2024/01/08 07:52:05;;;;;;;;;;;-3276.60;63.70;;;;;;5108082;27;19930;-71
2024/01/08 07:54:38;;;;;;;;;;;-3276.50;63.90;;;;;;5108115;27;19938;-72
2024/01/08 07:57:05;;;;;;;;;;;-3276.40;63.60;;;;;;5108667;27;19959;-71
2024/01/08 07:59:38;;;;;;;;;;;-3276.40;63.40;;;;;;5107480;27;19931;-70
2024/01/08 08:02:13;;;;;;;;;;;-3276.30;63.60;;;;;;5098216;28;19950;-72
2024/01/08 08:04:46;;;;;;;;;;;-3276.30;63.40;;;;;;5117212;27;20310;-71
2024/01/08 08:07:19;;;;;;;;;;;-3276.40;63.40;;;;;;5118249;27;20294;-71
2024/01/08 08:09:52;;;;;;;;;;;-3276.30;63.40;;;;;;5107418;27;19928;-72
2024/01/08 08:12:25;;;;;;;;;;;-3276.40;63.50;;;;;;5100967;28;19935;-72
2024/01/08 08:14:59;;;;;;;;;;;-3276.30;63.30;;;;;;5087307;28;19932;-71
2024/01/08 08:17:34;;;;;;;;;;;-3276.30;63.20;;;;;;5093973;28;19925;-70
2024/01/08 08:20:09;;;;;;;;;;;-3276.30;63.10;;;;;;5113317;27;20413;-70
2024/01/08 08:22:42;;;;;;;;;;;-3276.30;63.50;;;;;;5116680;27;19927;-71
2024/01/08 08:25:16;;;;;;;;;;;-3276.30;63.50;;;;;;5119411;27;19997;-71
2024/01/08 08:27:49;;;;;;;;;;;-3276.20;63.30;;;;;;5118161;27;19935;-71
2024/01/08 08:30:24;;;;;;;;;;;-3276.00;63.00;;;;;;5102684;27;20015;-72
2024/01/08 08:32:59;;;;;;;;;;;-3276.00;63.10;;;;;;5096530;28;19923;-72
2024/01/08 08:35:34;;;;;;;;;;;-3276.00;63.00;;;;;;5100233;28;20398;-72
2024/01/08 08:41:43;;;;;;;;;;;-3275.90;62.30;;;;;;5115723;27;20408;-71
2024/01/08 08:44:17;;;;;;;;;;;-3276.00;62.50;;;;;;5107133;27;19927;-72
2024/01/08 08:46:50;;;;;;;;;;;-3276.00;62.50;;;;;;5097140;28;20340;-72
2024/01/08 08:49:25;;;;;;;;;;;-3276.10;62.70;;;;;;5103919;27;19928;-73
2024/01/08 08:51:52;;;;;;;;;;;-3276.00;62.60;;;;;;5101631;27;19928;-72
2024/01/08 08:54:25;;;;;;;;;;;-3276.00;62.90;;;;;;5119196;27;19927;-71
2024/01/08 08:56:58;;;;;;;;;;;-3276.00;62.60;;;;;;5114973;27;19976;-73
2024/01/08 08:59:31;;;;;;;;;;;-3276.00;62.60;;;;;;5113634;27;19942;-73
2024/01/08 09:02:05;;;;;;;;;;;-3276.00;62.60;;;;;;5104279;27;20275;-72
2024/01/08 09:04:40;;;;;;;;;;;-3276.00;62.10;;;;;;5106838;27;19941;-73
2024/01/08 09:07:12;;;;;;;;;;;-3276.00;62.20;;;;;;5108588;27;19923;-72
2024/01/08 09:09:45;;;;;;;;;;;-3276.00;62.40;;;;;;5103642;27;20363;-71
2024/01/08 09:12:12;;;;;;;;;;;-3276.00;61.80;;;;;;5087917;28;20382;-71
2024/01/08 09:14:45;;;;;;;;;;;-3276.00;62.10;;;;;;5104360;27;19938;-70
2024/01/08 09:17:19;;;;;;;;;;;-3276.00;62.10;;;;;;5105653;27;19924;-71
2024/01/08 09:19:54;;;;;;;;;;;-3276.00;62.00;;;;;;5086099;27;19976;-71
2024/01/08 09:22:26;;;;;;;;;;;-3276.10;61.90;;;;;;5089653;28;19928;-70
2024/01/08 09:24:59;;;;;;;;;;;-3275.90;61.90;;;;;;5110616;27;19986;-72
2024/01/08 09:27:32;;;;;;;;;;;-3275.90;62.00;;;;;;5095452;28;19942;-72
2024/01/08 09:30:06;;;;;;;;;;;-3275.90;61.80;;;;;;5106024;27;20427;-71
2024/01/08 09:32:39;;;;;;;;;;;-3275.90;61.90;;;;;;5093872;27;19924;-71
2024/01/08 09:35:14;;;;;;;;;;;-3275.90;61.90;;;;;;5108812;27;20779;-70
2024/01/08 09:37:47;;;;;;;;;;;-3275.90;62.00;;;;;;5111793;27;20019;-72
2024/01/08 09:40:20;;;;;;;;;;;-3275.80;61.80;;;;;;5110597;27;20350;-64
2024/01/08 09:42:54;;;;;;;;;;;-3275.80;61.90;;;;;;5099581;27;19927;-66
2024/01/08 09:45:27;;;;;;;;;;;-3275.90;61.70;;;;;;5115486;27;20361;-64
2024/01/08 09:48:01;;;;;;;;;;;-3276.00;61.90;;;;;;5102188;27;20383;-65
2024/01/08 09:50:36;;;;;;;;;;;-3275.90;61.60;;;;;;5090160;27;19982;-64
2024/01/08 09:53:09;;;;;;;;;;;-3275.80;61.50;;;;;;5115252;27;20015;-64
2024/01/08 09:55:44;;;;;;;;;;;-3275.90;61.60;;;;;;5104601;27;19930;-64
2024/01/08 09:58:18;;;;;;;;;;;-3275.80;61.40;;;;;;5114846;27;19930;-64
2024/01/08 10:00:51;;;;;;;;;;;-3275.80;61.40;;;;;;5098111;27;20374;-65
2024/01/08 10:03:26;;;;;;;;;;;-3275.70;61.60;;;;;;5091844;28;19928;-65
2024/01/08 10:06:05;;;;;;;;;;;-3275.90;61.70;;;;;;5103204;27;20390;-65
2024/01/08 10:08:38;;;;;;;;;;;-3275.80;61.70;;;;;;5105325;27;19935;-65
2024/01/08 10:11:12;;;;;;;;;;;-3275.80;61.60;;;;;;5110377;27;19927;-65
2024/01/08 10:13:45;;;;;;;;;;;-3275.80;61.60;;;;;;5107926;27;19930;-64
2024/01/08 10:16:18;;;;;;;;;;;-3275.80;61.60;;;;;;5106792;28;20007;-65
2024/01/08 10:18:46;;;;;;;;;;;-3275.80;61.30;;;;;;5103028;28;19995;-65
2024/01/08 10:21:21;;;;;;;;;;;-3275.80;61.60;;;;;;5098111;28;19924;-65
2024/01/08 10:24:07;;;;;;;;;;;-3275.80;61.80;;;;;;5103885;28;19932;-67
2024/01/08 10:26:41;;;;;;;;;;;-3275.90;61.90;;;;;;5105656;27;19923;-65
2024/01/08 10:29:14;;;;;;;;;;;-3275.80;61.40;;;;;;5111646;27;20386;-65
2024/01/08 10:31:47;;;;;;;;;;;-3275.90;61.40;;;;;;5112876;27;20281;-65
2024/01/08 10:34:21;;;;;;;;;;;-3275.80;61.60;;;;;;5106570;27;19973;-65
2024/01/08 10:36:56;;;;;;;;;;;-3275.80;61.60;;;;;;5112712;27;20275;-67
2024/01/08 10:39:30;;;;;;;;;;;-3275.80;61.50;;;;;;5113275;27;19974;-64
2024/01/08 10:42:04;;;;;;;;;;;-3275.80;61.20;;;;;;5118911;27;20048;-66
2024/01/08 10:44:36;;;;;;;;;;;-3275.80;61.20;;;;;;5112945;27;19939;-65
2024/01/08 10:47:10;;;;;;;;;;;-3275.80;61.10;;;;;;5119580;27;19999;-65
2024/01/08 10:49:48;;;;;;;;;;;-3275.70;61.10;;;;;;5112313;27;19995;-67
2024/01/08 10:52:25;;;;;;;;;;;-3275.60;60.80;;;;;;5119286;27;19924;-67
2024/01/08 10:54:59;;;;;;;;;;;-3275.60;61.10;;;;;;5119048;27;20018;-67
2024/01/08 10:57:36;;;;;;;;;;;-3275.70;61.20;;;;;;5111663;27;19977;-67
2024/01/08 11:00:10;;;;;;;;;;;-3275.70;61.30;;;;;;5105926;27;19977;-67
2024/01/08 11:02:44;;;;;;;;;;;-3275.70;60.90;;;;;;5116634;27;20002;-67
2024/01/08 11:05:20;;;;;;;;;;;-3275.80;61.50;;;;;;5108575;27;19935;-67
2024/01/08 11:07:55;;;;;;;;;;;-3275.80;61.50;;;;;;5103558;27;25145;-67
2024/01/08 11:10:29;;;;;;;;;;;-3275.80;61.40;;;;;;5122274;27;20374;-68
2024/01/08 11:13:03;;;;;;;;;;;-3275.90;61.30;;;;;;5121717;27;20301;-66
2024/01/08 11:15:36;;;;;;;;;;;-3275.80;61.30;;;;;;5113084;27;19931;-67
2024/01/08 11:18:23;;;;;;;;;;;-3275.80;61.50;;;;;;5120110;27;19927;-67
2024/01/08 11:20:59;;;;;;;;;;;-3275.80;61.10;;;;;;5118325;27;20010;-67
2024/01/08 11:23:33;;;;;;;;;;;-3275.80;61.30;;;;;;5121228;27;19930;-68
2024/01/08 11:26:09;;;;;;;;;;;-3275.90;61.40;;;;;;5109545;27;20022;-67
2024/01/08 11:28:42;;;;;;;;;;;-3275.90;61.20;;;;;;5111168;27;19973;-67
2024/01/08 11:31:25;;;;;;;;;;;-3275.80;61.10;;;;;;5098065;28;19935;-68
2024/01/08 11:34:06;;;;;;;;;;;-3275.90;61.00;;;;;;5094520;27;19930;-66
2024/01/08 11:36:44;;;;;;;;;;;-3275.90;61.40;;;;;;5112677;27;19927;-66
2024/01/08 11:39:19;;;;;;;;;;;-3275.90;61.30;;;;;;5118767;27;19969;-68
2024/01/08 11:41:52;;;;;;;;;;;-3275.90;61.30;;;;;;5100370;27;19923;-68
2024/01/08 11:44:26;;;;;;;;;;;-3275.80;61.10;;;;;;5095137;28;19924;-68
2024/01/08 11:46:59;;;;;;;;;;;-3275.70;61.20;;;;;;5113109;27;19977;-66
2024/01/08 11:49:32;;;;;;;;;;;-3275.80;60.80;;;;;;5097668;28;19938;-68
2024/01/08 11:52:06;;;;;;;;;;;-3275.80;61.30;;;;;;5112635;27;19975;-68
2024/01/08 11:54:48;;;;;;;;;;;-3275.90;61.10;;;;;;5116522;27;19927;-68
2024/01/08 11:57:22;;;;;;;;;;;-3275.90;61.20;;;;;;5112757;27;20379;-68
2024/01/08 11:59:55;;;;;;;;;;;-3275.90;60.90;;;;;;5099909;27;19932;-71
2024/01/08 12:02:39;;;;;;;;;;;-3275.90;61.00;;;;;;5098309;27;19969;-69
2024/01/08 12:05:12;;;;;;;;;;;-3275.90;61.30;;;;;;5105719;27;19930;-70
2024/01/08 12:07:51;;;;;;;;;;;-3275.80;61.10;;;;;;5105893;27;19939;-70
2024/01/08 12:10:32;;;;;;;;;;;-3275.70;60.80;;;;;;5090450;28;19924;-71
2024/01/08 12:13:05;;;;;;;;;;;-3275.70;60.80;;;;;;5121251;27;19972;-68
2024/01/08 12:15:40;;;;;;;;;;;-3275.60;61.30;;;;;;5112169;27;19934;-70
2024/01/08 12:18:13;;;;;;;;;;;-3275.70;61.00;;;;;;5113328;27;19970;-69
2024/01/08 12:20:46;;;;;;;;;;;-3275.70;60.70;;;;;;5099307;28;19931;-70
2024/01/08 12:23:20;;;;;;;;;;;-3275.60;61.00;;;;;;5090383;28;19924;-69
2024/01/08 12:25:54;;;;;;;;;;;-3275.70;61.20;;;;;;5108232;27;20026;-69
2024/01/08 12:28:28;;;;;;;;;;;-3275.70;61.10;;;;;;5100506;27;20358;-70
2024/01/08 12:31:02;;;;;;;;;;;-3275.70;61.20;;;;;;5109938;27;19939;-71
2024/01/08 12:33:34;;;;;;;;;;;-3275.80;61.20;;;;;;5076936;28;20348;-68
2024/01/08 12:36:08;;;;;;;;;;;-3275.80;61.60;;;;;;5091874;28;20050;-70
2024/01/08 12:38:42;;;;;;;;;;;-3275.80;61.60;;;;;;5109674;28;19961;-69
2024/01/08 12:41:17;;;;;;;;;;;-3275.80;61.70;;;;;;5118432;27;19927;-70
2024/01/08 12:43:50;;;;;;;;;;;-3275.70;61.50;;;;;;5107812;27;20425;-70
2024/01/08 12:46:23;;;;;;;;;;;-3275.80;61.50;;;;;;5109821;27;20393;-70
2024/01/08 12:48:57;;;;;;;;;;;-3275.80;61.60;;;;;;5108290;27;20359;-70
2024/01/08 12:51:30;;;;;;;;;;;-3275.90;61.30;;;;;;5115893;27;20373;-70
2024/01/08 12:54:04;;;;;;;;;;;-3275.80;61.30;;;;;;5119813;27;19928;-70
2024/01/08 12:56:38;;;;;;;;;;;-3275.70;61.50;;;;;;5101995;27;19950;-70
2024/01/08 12:59:12;;;;;;;;;;;-3275.70;61.30;;;;;;5118980;27;19924;-70
2024/01/08 13:01:46;;;;;;;;;;;-3275.80;61.30;;;;;;5120011;27;19992;-70
2024/01/08 13:04:14;;;;;;;;;;;-3275.80;61.30;;;;;;5119875;27;19928;-68
2024/01/08 13:06:48;;;;;;;;;;;-3275.90;61.50;;;;;;5109577;27;19923;-70
2024/01/08 13:09:22;;;;;;;;;;;-3275.90;61.40;;;;;;5119758;27;19972;-66
2024/01/08 13:11:57;;;;;;;;;;;-3275.90;61.20;;;;;;5100120;28;19924;-66
2024/01/08 13:14:30;;;;;;;;;;;-3275.90;61.20;;;;;;5107048;27;19928;-66
2024/01/08 13:17:04;;;;;;;;;;;-3275.90;61.30;;;;;;5095458;28;19994;-66
2024/01/08 13:19:36;;;;;;;;;;;-3275.90;61.50;;;;;;5113143;27;19934;-65
2024/01/08 13:22:10;;;;;;;;;;;-3275.80;61.30;;;;;;5103911;28;19939;-65
2024/01/08 13:24:43;;;;;;;;;;;-3275.80;61.40;;;;;;5091276;28;19924;-65
2024/01/08 13:27:18;;;;;;;;;;;-3275.70;61.70;;;;;;5088679;28;19930;-65
2024/01/08 13:29:51;;;;;;;;;;;-3275.70;61.80;;;;;;5095783;27;19940;-66
2024/01/08 13:32:25;;;;;;;;;;;-3275.60;61.50;;;;;;5119638;27;19934;-65
2024/01/08 13:34:58;;;;;;;;;;;-3275.60;61.70;;;;;;5099194;27;19943;-66
2024/01/08 13:37:31;;;;;;;;;;;-3275.60;61.80;;;;;;5116685;27;19923;-65
2024/01/08 13:40:06;;;;;;;;;;;-3275.60;61.80;;;;;;5106584;27;19928;-66
2024/01/08 13:42:35;;;;;;;;;;;-3275.60;61.70;;;;;;5117556;27;19924;-66
2024/01/08 13:45:09;;;;;;;;;;;-3275.60;61.30;;;;;;5102599;27;19931;-66
2024/01/08 13:47:43;;;;;;;;;;;-3275.60;61.50;;;;;;5093806;27;19934;-67
2024/01/08 13:50:15;;;;;;;;;;;-3275.50;61.70;;;;;;5092573;28;19956;-65
2024/01/08 13:52:48;;;;;;;;;;;-3275.50;61.90;;;;;;5115213;27;19928;-65
2024/01/08 13:55:21;;;;;;;;;;;-3275.60;61.80;;;;;;5088696;28;20286;-66
2024/01/08 13:57:56;;;;;;;;;;;-3275.60;61.70;;;;;;5093473;27;19924;-65
2024/01/08 14:00:29;;;;;;;;;;;-3275.60;61.80;;;;;;5116292;27;20018;-66
2024/01/08 14:03:36;;;;;;;;;;;-3275.50;61.80;;;;;;5112982;27;19928;-65
2024/01/08 14:06:11;;;;;;;;;;;-3275.50;61.70;;;;;;5099939;28;20027;-66
2024/01/08 14:08:44;;;;;;;;;;;-3275.50;61.90;;;;;;5103172;27;20366;-67
2024/01/08 14:11:17;;;;;;;;;;;-3275.60;62.10;;;;;;5101515;27;19930;-65
2024/01/08 14:13:52;;;;;;;;;;;-3275.50;62.00;;;;;;5106503;27;20434;-66
2024/01/08 14:16:26;;;;;;;;;;;-3275.50;62.10;;;;;;5110391;27;19931;-64
2024/01/08 14:18:58;;;;;;;;;;;-3275.40;61.60;;;;;;5116014;28;19927;-63
2024/01/08 14:21:32;;;;;;;;;;;-3275.40;61.70;;;;;;5110786;27;20437;-63
2024/01/08 14:24:06;;;;;;;;;;;-3275.40;61.60;;;;;;5105357;28;20378;-62
2024/01/08 14:26:38;;;;;;;;;;;-3275.40;61.90;;;;;;5113296;28;20378;-62
2024/01/08 14:29:13;;;;;;;;;;;-3275.30;61.90;;;;;;5107649;28;19946;-62
2024/01/08 14:31:46;;;;;;;;;;;-3275.20;62.10;;;;;;5099727;28;20023;-63
2024/01/08 14:34:19;;;;;;;;;;;-3275.20;62.10;;;;;;5086712;28;20385;-63
2024/01/08 14:36:53;;;;;;;;;;;-3275.20;61.80;;;;;;5112675;28;20424;-62
2024/01/08 14:39:27;;;;;;;;;;;-3275.10;62.00;;;;;;5101107;28;19931;-63
2024/01/08 14:41:59;;;;;;;;;;;-3275.20;62.40;;;;;;5108995;28;20014;-61
2024/01/08 14:44:34;;;;;;;;;;;-3275.20;62.30;;;;;;5108567;28;19928;-62
2024/01/08 14:47:07;;;;;;;;;;;-3275.20;62.30;;;;;;5109273;28;19924;-62
2024/01/08 14:49:41;;;;;;;;;;;-3275.30;62.10;;;;;;5113716;28;20297;-62